Lana Louise — WDC2702 — position and weather

sailwx.info

Track history (hours):
 
Tides and Currents Weather Stations Pressure Air Temp Water Temp Dewpoint Dewpoint Depression Visibility Wind Speed Wind Dir Waves Ship Positions

Lana Louise

Owner: Kirby Inland Marine LP, Houston, TX. More information available from US FCC via Universal Licensing System and Coast Guard Vessel Documentation Center.

Last reported at 2017-Dec-11 16:48 UTC. Time now 2017-Dec-14 00:14 UTC.
Position N 29°44' W 095°07'.

Length 108 m; draft 2.6 m.

Type: . MMSI: 366996580.

Date/timePositionNaut miles runAvg speedWind from/ knotsBaromVisibWave heightAir tempDewpointWater temp
2017-Dec-11 16:48N 29°44' W 095°07'1 4.5
2017-Dec-11 16:29N 29°46' W 095°05'0 0.6
2017-Dec-11 15:52N 29°46' W 095°05'1 0.5
2017-Dec-11 14:50N 29°46' W 095°05'2 4.5
2017-Dec-11 14:30N 29°46' W 095°07'1 1.0
2017-Dec-11 13:59N 29°46' W 095°06'1 1.1
2017-Dec-11 13:21N 29°46' W 095°05'1 2.8
2017-Dec-11 12:53N 29°45' W 095°06'2 4.2
2017-Dec-11 12:29N 29°44' W 095°08'2 4.8
2017-Dec-11 11:59N 29°45' W 095°10'3 4.6
2017-Dec-11 11:26N 29°43' W 095°13'2 3.6
2017-Dec-11 11:00N 29°43' W 095°15'0 0.0
2017-Dec-11 10:30N 29°43' W 095°15'0 0.0
2017-Dec-11 10:00N 29°43' W 095°15'0 0.1
2017-Dec-11 09:30N 29°43' W 095°15'0 0.1
2017-Dec-11 08:48N 29°43' W 095°15'0 0.0
2017-Dec-11 07:03N 29°43' W 095°15'0 0.0
2017-Dec-11 06:51N 29°43' W 095°15'0 0.0
2017-Dec-11 06:27N 29°43' W 095°15'0 0.0
2017-Dec-11 05:48N 29°43' W 095°15'0 0.0
2017-Dec-11 05:21N 29°43' W 095°15'0 0.0
2017-Dec-11 05:00N 29°43' W 095°15'0 0.0
2017-Dec-11 04:21N 29°43' W 095°15'0 0.0
2017-Dec-11 03:53N 29°43' W 095°15'0 0.0
2017-Dec-11 03:30N 29°43' W 095°15'0 0.0
2017-Dec-11 03:01N 29°43' W 095°15'0 0.0
2017-Dec-11 02:28N 29°43' W 095°15'1 2.2
2017-Dec-11 02:00N 29°44' W 095°14'2 4.2
2017-Dec-11 01:31N 29°45' W 095°12'2 3.9
2017-Dec-11 01:00N 29°44' W 095°09'2 4.1
2017-Dec-11 00:28N 29°44' W 095°07'1 2.8
2017-Dec-10 23:57N 29°45' W 095°06'0 0.0
2017-Dec-10 23:30N 29°45' W 095°06'2 0.2
2017-Dec-10 14:36N 29°47' W 095°04'0 4.6
2017-Dec-10 14:30N 29°47' W 095°04'1 0.6
2017-Dec-10 12:13N 29°46' W 095°06'1 2.3
2017-Dec-10 11:53N 29°46' W 095°07'0 0.4
2017-Dec-10 11:30N 29°46' W 095°07'1 1.7
2017-Dec-10 11:00N 29°45' W 095°06'2 3.1
2017-Dec-10 10:30N 29°44' W 095°07'3 5.1
2017-Dec-10 09:54N 29°45' W 095°10'2 5.1
2017-Dec-10 09:30N 29°44' W 095°12'2 2.9
2017-Dec-10 08:56N 29°43' W 095°14'0 0.0
2017-Dec-10 07:43N 29°43' W 095°14'0 0.0
2017-Dec-10 07:25N 29°43' W 095°14'0 0.0
2017-Dec-10 05:03N 29°43' W 095°14'0 0.0
2017-Dec-10 04:57N 29°43' W 095°14'0 0.0
2017-Dec-10 04:24N 29°43' W 095°14'0 0.0
2017-Dec-10 03:21N 29°43' W 095°14'0 0.0
2017-Dec-09 22:56N 29°43' W 095°14'0 0.0
2017-Dec-09 22:20N 29°43' W 095°14'1 3.6
2017-Dec-09 21:56N 29°44' W 095°13'2 4.2
2017-Dec-09 21:29N 29°45' W 095°11'2 3.7
2017-Dec-09 21:00N 29°44' W 095°09'2 4.3
2017-Dec-09 20:26N 29°45' W 095°06'0 0.1
2017-Dec-09 15:21N 29°45' W 095°07'0 0.0
2017-Dec-09 12:14N 29°45' W 095°07'0 0.0
2017-Dec-09 11:59N 29°45' W 095°07'0 0.0
2017-Dec-09 11:30N 29°45' W 095°07'1 1.8
2017-Dec-09 11:00N 29°45' W 095°06'1 2.0
2017-Dec-09 10:27N 29°46' W 095°07'0 0.6
2017-Dec-09 10:00N 29°46' W 095°07'0 0.0
2017-Dec-09 08:04N 29°46' W 095°07'0 0.0
2017-Dec-09 07:46N 29°46' W 095°07'0 0.0
2017-Dec-09 07:28N 29°46' W 095°07'0 0.0
2017-Dec-09 06:55N 29°46' W 095°07'0 0.0
2017-Dec-09 06:28N 29°46' W 095°07'0 0.0
2017-Dec-09 05:49N 29°46' W 095°07'0 0.0
2017-Dec-08 23:03N 29°46' W 095°07'0 0.1
2017-Dec-08 22:58N 29°46' W 095°07'1 2.4
2017-Dec-08 22:28N 29°46' W 095°06'1 2.2
2017-Dec-08 21:49N 29°45' W 095°04'2 5.2
2017-Dec-08 21:30N 29°44' W 095°03'2 4.4
2017-Dec-08 20:58N 29°42' W 095°01'2 4.6
2017-Dec-08 20:31N 29°41' W 094°59'3 5.3
2017-Dec-08 20:01N 29°39' W 094°58'3 5.5
2017-Dec-08 19:31N 29°36' W 094°57'3 5.8
2017-Dec-08 19:01N 29°34' W 094°55'3 5.8
2017-Dec-08 18:31N 29°31' W 094°53'  
2017-Dec-04 10:24N 29°37' W 095°02'0 0.0
2017-Dec-04 09:39N 29°37' W 095°02'0 0.0
2017-Dec-04 09:24N 29°37' W 095°02'0 0.0
2017-Dec-04 09:00N 29°37' W 095°02'0 0.0
2017-Dec-04 08:24N 29°37' W 095°02'0 0.0
2017-Dec-04 07:51N 29°37' W 095°02'0 0.0
2017-Dec-04 07:12N 29°37' W 095°02'0 0.0
2017-Dec-04 06:54N 29°37' W 095°02'0 0.0
2017-Dec-04 06:30N 29°37' W 095°02'0 0.0
2017-Dec-04 06:00N 29°37' W 095°02'0 0.0
2017-Dec-04 05:30N 29°37' W 095°02'0 0.0
2017-Dec-04 04:54N 29°37' W 095°02'0 0.0
2017-Dec-04 04:30N 29°37' W 095°02'0 0.0
2017-Dec-04 04:00N 29°37' W 095°02'0 0.0
2017-Dec-04 03:27N 29°37' W 095°02'0 0.0
2017-Dec-04 03:00N 29°37' W 095°02'0 0.0
2017-Dec-04 02:30N 29°37' W 095°02'0 0.0
2017-Dec-04 01:57N 29°37' W 095°02'0 0.0
2017-Dec-04 01:30N 29°37' W 095°02'0 0.0
2017-Dec-04 00:57N 29°37' W 095°02'0 0.0
2017-Dec-04 00:30N 29°37' W 095°02'0 0.0
2017-Dec-03 23:51N 29°37' W 095°02'0 0.1
2017-Dec-03 23:27N 29°37' W 095°01'0 0.1
2017-Dec-03 23:00N 29°37' W 095°01'0 0.0
2017-Dec-03 22:27N 29°37' W 095°01'0 0.0
2017-Dec-03 22:00N 29°37' W 095°01'2 3.8
2017-Dec-03 21:30N 29°37' W 094°59'2 4.0
2017-Dec-03 21:00N 29°38' W 094°58'3 6.0
2017-Dec-03 20:30N 29°41' W 094°59'3 5.6
2017-Dec-03 19:56N 29°44' W 095°02'4 6.0
2017-Dec-03 19:20N 29°46' W 095°05'1 2.7
2017-Dec-03 18:52N 29°46' W 095°06'0 0.8
2017-Dec-03 18:18N 29°46' W 095°06'2 4.9
2017-Dec-03 17:59N 29°46' W 095°05'0 0.1
2017-Dec-03 15:45N 29°46' W 095°05'1 0.2
2017-Dec-03 09:06N 29°47' W 095°04'0 1.5
2017-Dec-03 08:52N 29°47' W 095°04'1 0.9
2017-Dec-03 07:18N 29°46' W 095°05'1 1.0
2017-Dec-03 06:17N 29°46' W 095°04'0 0.2
2017-Dec-03 05:59N 29°46' W 095°04'2 3.3
2017-Dec-03 05:30N 29°44' W 095°04'2 4.9
2017-Dec-03 05:00N 29°43' W 095°01'1 2.8
2017-Dec-03 04:31N 29°42' W 095°03'0 0.4
2017-Dec-03 03:58N 29°42' W 095°03'0 0.0
2017-Dec-03 03:28N 29°42' W 095°03'0 0.0
2017-Dec-03 02:58N 29°42' W 095°03'0 0.0
2017-Dec-03 01:49N 29°42' W 095°03'0 0.0
2017-Dec-03 01:22N 29°42' W 095°03'0 0.0
2017-Dec-03 00:58N 29°42' W 095°03'0 0.0
2017-Dec-03 00:28N 29°42' W 095°03'0 0.0
2017-Dec-02 23:52N 29°42' W 095°03'0 0.0
2017-Dec-02 23:28N 29°42' W 095°03'0 0.0
2017-Dec-02 22:58N 29°42' W 095°03'0 0.0
2017-Dec-02 22:28N 29°42' W 095°03'0 0.0
2017-Dec-02 21:31N 29°42' W 095°03'0 0.0
2017-Dec-02 21:28N 29°42' W 095°03'0 0.0
2017-Dec-02 21:00N 29°42' W 095°03'0 0.0
2017-Dec-02 19:47N 29°42' W 095°03'0 0.1
2017-Dec-02 19:30N 29°42' W 095°03'0 0.0
2017-Dec-02 19:00N 29°42' W 095°03'0 0.0
2017-Dec-02 18:30N 29°42' W 095°03'0 0.0
2017-Dec-02 18:00N 29°42' W 095°03'0 0.0
2017-Dec-02 17:29N 29°42' W 095°03'0 0.9
2017-Dec-02 17:00N 29°42' W 095°02'1 2.0
2017-Dec-02 16:30N 29°43' W 095°01'2 3.7
2017-Dec-02 16:00N 29°44' W 095°03'3 3.9
2017-Dec-02 15:17N 29°46' W 095°05'0 0.0
2017-Dec-02 12:45N 29°46' W 095°05'1 4.7
2017-Dec-02 12:30N 29°47' W 095°05'0 0.1
2017-Dec-02 08:04N 29°47' W 095°04'1 0.3
2017-Dec-02 03:49N 29°46' W 095°05'0 0.0
2017-Dec-02 02:56N 29°46' W 095°05'1 0.3
2017-Dec-02 00:50N 29°45' W 095°06'  
Track history (hours):
 
Tides and Currents Weather Stations Pressure Air Temp Water Temp Dewpoint Dewpoint Depression Visibility Wind Speed Wind Dir Waves Ship Positions

Lana Louise

Owner: Kirby Inland Marine LP, Houston, TX. More information available from US FCC via Universal Licensing System and Coast Guard Vessel Documentation Center.

Last reported at 2017-Dec-11 16:48 UTC. Time now 2017-Dec-14 00:14 UTC.
Position N 29°44' W 095°07'.

Length 108 m; draft 2.6 m.

Type: . MMSI: 366996580.

Date/timePositionNaut miles runAvg speedWind from/ knotsBaromVisibWave heightAir tempDewpointWater temp
2017-Dec-11 16:48N 29°44' W 095°07'1 4.5
2017-Dec-11 16:29N 29°46' W 095°05'0 0.6
2017-Dec-11 15:52N 29°46' W 095°05'1 0.5
2017-Dec-11 14:50N 29°46' W 095°05'2 4.5
2017-Dec-11 14:30N 29°46' W 095°07'1 1.0
2017-Dec-11 13:59N 29°46' W 095°06'1 1.1
2017-Dec-11 13:21N 29°46' W 095°05'1 2.8
2017-Dec-11 12:53N 29°45' W 095°06'2 4.2
2017-Dec-11 12:29N 29°44' W 095°08'2 4.8
2017-Dec-11 11:59N 29°45' W 095°10'3 4.6
2017-Dec-11 11:26N 29°43' W 095°13'2 3.6
2017-Dec-11 11:00N 29°43' W 095°15'0 0.0
2017-Dec-11 10:30N 29°43' W 095°15'0 0.0
2017-Dec-11 10:00N 29°43' W 095°15'0 0.1
2017-Dec-11 09:30N 29°43' W 095°15'0 0.1
2017-Dec-11 08:48N 29°43' W 095°15'0 0.0
2017-Dec-11 07:03N 29°43' W 095°15'0 0.0
2017-Dec-11 06:51N 29°43' W 095°15'0 0.0
2017-Dec-11 06:27N 29°43' W 095°15'0 0.0
2017-Dec-11 05:48N 29°43' W 095°15'0 0.0
2017-Dec-11 05:21N 29°43' W 095°15'0 0.0
2017-Dec-11 05:00N 29°43' W 095°15'0 0.0
2017-Dec-11 04:21N 29°43' W 095°15'0 0.0
2017-Dec-11 03:53N 29°43' W 095°15'0 0.0
2017-Dec-11 03:30N 29°43' W 095°15'0 0.0
2017-Dec-11 03:01N 29°43' W 095°15'0 0.0
2017-Dec-11 02:28N 29°43' W 095°15'1 2.2
2017-Dec-11 02:00N 29°44' W 095°14'2 4.2
2017-Dec-11 01:31N 29°45' W 095°12'2 3.9
2017-Dec-11 01:00N 29°44' W 095°09'2 4.1
2017-Dec-11 00:28N 29°44' W 095°07'1 2.8
2017-Dec-10 23:57N 29°45' W 095°06'0 0.0
2017-Dec-10 23:30N 29°45' W 095°06'2 0.2
2017-Dec-10 14:36N 29°47' W 095°04'0 4.6
2017-Dec-10 14:30N 29°47' W 095°04'1 0.6
2017-Dec-10 12:13N 29°46' W 095°06'1 2.3
2017-Dec-10 11:53N 29°46' W 095°07'0 0.4
2017-Dec-10 11:30N 29°46' W 095°07'1 1.7
2017-Dec-10 11:00N 29°45' W 095°06'2 3.1
2017-Dec-10 10:30N 29°44' W 095°07'3 5.1
2017-Dec-10 09:54N 29°45' W 095°10'2 5.1
2017-Dec-10 09:30N 29°44' W 095°12'2 2.9
2017-Dec-10 08:56N 29°43' W 095°14'0 0.0
2017-Dec-10 07:43N 29°43' W 095°14'0 0.0
2017-Dec-10 07:25N 29°43' W 095°14'0 0.0
2017-Dec-10 05:03N 29°43' W 095°14'0 0.0
2017-Dec-10 04:57N 29°43' W 095°14'0 0.0
2017-Dec-10 04:24N 29°43' W 095°14'0 0.0
2017-Dec-10 03:21N 29°43' W 095°14'0 0.0
2017-Dec-09 22:56N 29°43' W 095°14'0 0.0
2017-Dec-09 22:20N 29°43' W 095°14'1 3.6
2017-Dec-09 21:56N 29°44' W 095°13'2 4.2
2017-Dec-09 21:29N 29°45' W 095°11'2 3.7
2017-Dec-09 21:00N 29°44' W 095°09'2 4.3
2017-Dec-09 20:26N 29°45' W 095°06'0 0.1
2017-Dec-09 15:21N 29°45' W 095°07'0 0.0
2017-Dec-09 12:14N 29°45' W 095°07'0 0.0
2017-Dec-09 11:59N 29°45' W 095°07'0 0.0
2017-Dec-09 11:30N 29°45' W 095°07'1 1.8
2017-Dec-09 11:00N 29°45' W 095°06'1 2.0
2017-Dec-09 10:27N 29°46' W 095°07'0 0.6
2017-Dec-09 10:00N 29°46' W 095°07'0 0.0
2017-Dec-09 08:04N 29°46' W 095°07'0 0.0
2017-Dec-09 07:46N 29°46' W 095°07'0 0.0
2017-Dec-09 07:28N 29°46' W 095°07'0 0.0
2017-Dec-09 06:55N 29°46' W 095°07'0 0.0
2017-Dec-09 06:28N 29°46' W 095°07'0 0.0
2017-Dec-09 05:49N 29°46' W 095°07'0 0.0
2017-Dec-08 23:03N 29°46' W 095°07'0 0.1
2017-Dec-08 22:58N 29°46' W 095°07'1 2.4
2017-Dec-08 22:28N 29°46' W 095°06'1 2.2
2017-Dec-08 21:49N 29°45' W 095°04'2 5.2
2017-Dec-08 21:30N 29°44' W 095°03'2 4.4
2017-Dec-08 20:58N 29°42' W 095°01'2 4.6
2017-Dec-08 20:31N 29°41' W 094°59'3 5.3
2017-Dec-08 20:01N 29°39' W 094°58'3 5.5
2017-Dec-08 19:31N 29°36' W 094°57'3 5.8
2017-Dec-08 19:01N 29°34' W 094°55'3 5.8
2017-Dec-08 18:31N 29°31' W 094°53'  
2017-Dec-04 10:24N 29°37' W 095°02'0 0.0
2017-Dec-04 09:39N 29°37' W 095°02'0 0.0
2017-Dec-04 09:24N 29°37' W 095°02'0 0.0
2017-Dec-04 09:00N 29°37' W 095°02'0 0.0
2017-Dec-04 08:24N 29°37' W 095°02'0 0.0
2017-Dec-04 07:51N 29°37' W 095°02'0 0.0
2017-Dec-04 07:12N 29°37' W 095°02'0 0.0
2017-Dec-04 06:54N 29°37' W 095°02'0 0.0
2017-Dec-04 06:30N 29°37' W 095°02'0 0.0
2017-Dec-04 06:00N 29°37' W 095°02'0 0.0
2017-Dec-04 05:30N 29°37' W 095°02'0 0.0
2017-Dec-04 04:54N 29°37' W 095°02'0 0.0
2017-Dec-04 04:30N 29°37' W 095°02'0 0.0
2017-Dec-04 04:00N 29°37' W 095°02'0 0.0
2017-Dec-04 03:27N 29°37' W 095°02'0 0.0
2017-Dec-04 03:00N 29°37' W 095°02'0 0.0
2017-Dec-04 02:30N 29°37' W 095°02'0 0.0
2017-Dec-04 01:57N 29°37' W 095°02'0 0.0
2017-Dec-04 01:30N 29°37' W 095°02'0 0.0
2017-Dec-04 00:57N 29°37' W 095°02'0 0.0
2017-Dec-04 00:30N 29°37' W 095°02'0 0.0
2017-Dec-03 23:51N 29°37' W 095°02'0 0.1
2017-Dec-03 23:27N 29°37' W 095°01'0 0.1
2017-Dec-03 23:00N 29°37' W 095°01'0 0.0
2017-Dec-03 22:27N 29°37' W 095°01'0 0.0
2017-Dec-03 22:00N 29°37' W 095°01'2 3.8
2017-Dec-03 21:30N 29°37' W 094°59'2 4.0
2017-Dec-03 21:00N 29°38' W 094°58'3 6.0
2017-Dec-03 20:30N 29°41' W 094°59'3 5.6
2017-Dec-03 19:56N 29°44' W 095°02'4 6.0
2017-Dec-03 19:20N 29°46' W 095°05'1 2.7
2017-Dec-03 18:52N 29°46' W 095°06'0 0.8
2017-Dec-03 18:18N 29°46' W 095°06'2 4.9
2017-Dec-03 17:59N 29°46' W 095°05'0 0.1
2017-Dec-03 15:45N 29°46' W 095°05'1 0.2
2017-Dec-03 09:06N 29°47' W 095°04'0 1.5
2017-Dec-03 08:52N 29°47' W 095°04'1 0.9
2017-Dec-03 07:18N 29°46' W 095°05'1 1.0
2017-Dec-03 06:17N 29°46' W 095°04'0 0.2
2017-Dec-03 05:59N 29°46' W 095°04'2 3.3
2017-Dec-03 05:30N 29°44' W 095°04'2 4.9
2017-Dec-03 05:00N 29°43' W 095°01'1 2.8
2017-Dec-03 04:31N 29°42' W 095°03'0 0.4
2017-Dec-03 03:58N 29°42' W 095°03'0 0.0
2017-Dec-03 03:28N 29°42' W 095°03'0 0.0
2017-Dec-03 02:58N 29°42' W 095°03'0 0.0
2017-Dec-03 01:49N 29°42' W 095°03'0 0.0
2017-Dec-03 01:22N 29°42' W 095°03'0 0.0
2017-Dec-03 00:58N 29°42' W 095°03'0 0.0
2017-Dec-03 00:28N 29°42' W 095°03'0 0.0
2017-Dec-02 23:52N 29°42' W 095°03'0 0.0
2017-Dec-02 23:28N 29°42' W 095°03'0 0.0
2017-Dec-02 22:58N 29°42' W 095°03'0 0.0
2017-Dec-02 22:28N 29°42' W 095°03'0 0.0
2017-Dec-02 21:31N 29°42' W 095°03'0 0.0
2017-Dec-02 21:28N 29°42' W 095°03'0 0.0
2017-Dec-02 21:00N 29°42' W 095°03'0 0.0
2017-Dec-02 19:47N 29°42' W 095°03'0 0.1
2017-Dec-02 19:30N 29°42' W 095°03'0 0.0
2017-Dec-02 19:00N 29°42' W 095°03'0 0.0
2017-Dec-02 18:30N 29°42' W 095°03'0 0.0
2017-Dec-02 18:00N 29°42' W 095°03'0 0.0
2017-Dec-02 17:29N 29°42' W 095°03'0 0.9
2017-Dec-02 17:00N 29°42' W 095°02'1 2.0
2017-Dec-02 16:30N 29°43' W 095°01'2 3.7
2017-Dec-02 16:00N 29°44' W 095°03'3 3.9
2017-Dec-02 15:17N 29°46' W 095°05'0 0.0
2017-Dec-02 12:45N 29°46' W 095°05'1 4.7
2017-Dec-02 12:30N 29°47' W 095°05'0 0.1
2017-Dec-02 08:04N 29°47' W 095°04'1 0.3
2017-Dec-02 03:49N 29°46' W 095°05'0 0.0
2017-Dec-02 02:56N 29°46' W 095°05'1 0.3
2017-Dec-02 00:50N 29°45' W 095°06'  

Dump ship's entire track history